Somis, California
Current Conditions -  °F | °C
As of 8:55 AM on Thursday 27 Nov 2014 (Local Time) from KCMA Reporting Station
Clear Clear  
Wind Chill: 71°   Ceiling: Unl
Heat Index: 71°   Visibility: 10mi
Dew Point: 33°   Wind: 5mph
Humidity: 25%   Direction: 300°WNW
Pressure: 30.11"   Gusts: NA
Location:  34.26°N, 119°W
Report Text: KCMA 271655Z 30004KT 10SM CLR 22/01 A3011 RMK AO2 SLP203 T02170006
Loading
Personal Weather Stations






























Interactive Weather Map New forecast layout! Learn more

10-Day Weather Forecast

Advertisements
Track Severe Weather on mobile